sensor_id;sensor_type;location;lat;lon;timestamp;pressure;altitude;pressure_sealevel;temperature;humidity
13800;BME280;6971;50.028;9.258;2022-11-15T00:01:09;99160.44;;;8.11;100.00
13800;BME280;6971;50.028;9.258;2022-11-15T00:06:14;99152.13;;;8.20;100.00
13800;BME280;6971;50.028;9.258;2022-11-15T00:11:15;99153.44;;;8.12;100.00
13800;BME280;6971;50.028;9.258;2022-11-15T00:16:17;99141.91;;;7.96;100.00
13800;BME280;6971;50.028;9.258;2022-11-15T00:21:18;99149.41;;;7.85;100.00
13800;BME280;6971;50.028;9.258;2022-11-15T00:26:18;99146.38;;;7.94;100.00
13800;BME280;6971;50.028;9.258;2022-11-15T00:31:19;99140.97;;;7.97;100.00
13800;BME280;6971;50.028;9.258;2022-11-15T00:36:20;99138.53;;;7.94;100.00
13800;BME280;6971;50.028;9.258;2022-11-15T00:41:21;99133.41;;;7.91;100.00
13800;BME280;6971;50.028;9.258;2022-11-15T00:46:22;99136.91;;;7.73;100.00
13800;BME280;6971;50.028;9.258;2022-11-15T00:51:23;99132.50;;;7.73;100.00
13800;BME280;6971;50.028;9.258;2022-11-15T00:56:24;99134.56;;;7.66;100.00
13800;BME280;6971;50.028;9.258;2022-11-15T01:01:25;99137.91;;;7.51;100.00
13800;BME280;6971;50.028;9.258;2022-11-15T01:06:26;99129.88;;;7.54;100.00
13800;BME280;6971;50.028;9.258;2022-11-15T01:11:26;99122.44;;;7.64;100.00
13800;BME280;6971;50.028;9.258;2022-11-15T01:16:27;99113.00;;;7.60;100.00
13800;BME280;6971;50.028;9.258;2022-11-15T01:21:28;99127.91;;;7.59;100.00
13800;BME280;6971;50.028;9.258;2022-11-15T01:26:29;99113.72;;;7.63;100.00
13800;BME280;6971;50.028;9.258;2022-11-15T01:31:30;99119.13;;;7.60;100.00
13800;BME280;6971;50.028;9.258;2022-11-15T01:36:30;99112.44;;;7.53;100.00
13800;BME280;6971;50.028;9.258;2022-11-15T01:41:32;99106.44;;;7.51;100.00
13800;BME280;6971;50.028;9.258;2022-11-15T01:46:34;99104.09;;;7.44;100.00
13800;BME280;6971;50.028;9.258;2022-11-15T01:51:36;99097.72;;;7.50;100.00
13800;BME280;6971;50.028;9.258;2022-11-15T01:56:45;99089.16;;;7.47;100.00
13800;BME280;6971;50.028;9.258;2022-11-15T02:01:47;99076.03;;;7.47;100.00
13800;BME280;6971;50.028;9.258;2022-11-15T02:06:48;99078.41;;;7.51;100.00
13800;BME280;6971;50.028;9.258;2022-11-15T02:11:50;99069.09;;;7.46;100.00
13800;BME280;6971;50.028;9.258;2022-11-15T02:17:07;99062.56;;;7.35;100.00
13800;BME280;6971;50.028;9.258;2022-11-15T02:22:35;99058.88;;;7.39;100.00
13800;BME280;6971;50.028;9.258;2022-11-15T02:33:20;99039.59;;;7.40;100.00
13800;BME280;6971;50.028;9.258;2022-11-15T02:38:34;99044.78;;;7.42;100.00
13800;BME280;6971;50.028;9.258;2022-11-15T02:43:49;99038.59;;;7.43;100.00
13800;BME280;6971;50.028;9.258;2022-11-15T02:48:57;99038.25;;;7.51;100.00
13800;BME280;6971;50.028;9.258;2022-11-15T02:53:58;99032.09;;;7.52;100.00
13800;BME280;6971;50.028;9.258;2022-11-15T03:09:54;99024.06;;;7.55;100.00
13800;BME280;6971;50.028;9.258;2022-11-15T03:15:01;99017.75;;;7.59;100.00
13800;BME280;6971;50.028;9.258;2022-11-15T03:20:06;99005.84;;;7.52;100.00
13800;BME280;6971;50.028;9.258;2022-11-15T03:25:14;99002.34;;;7.34;100.00
13800;BME280;6971;50.028;9.258;2022-11-15T03:30:18;98991.03;;;7.33;100.00
13800;BME280;6971;50.028;9.258;2022-11-15T03:35:25;98996.53;;;7.27;100.00
13800;BME280;6971;50.028;9.258;2022-11-15T03:40:36;98991.59;;;7.21;100.00
13800;BME280;6971;50.028;9.258;2022-11-15T03:45:43;98990.16;;;7.13;100.00
13800;BME280;6971;50.028;9.258;2022-11-15T03:50:47;98994.78;;;7.08;100.00
13800;BME280;6971;50.028;9.258;2022-11-15T03:55:48;98988.63;;;7.09;100.00
13800;BME280;6971;50.028;9.258;2022-11-15T04:00:50;98991.72;;;6.98;100.00
13800;BME280;6971;50.028;9.258;2022-11-15T04:05:51;98984.72;;;6.79;100.00
13800;BME280;6971;50.028;9.258;2022-11-15T04:10:52;98977.72;;;6.80;100.00
13800;BME280;6971;50.028;9.258;2022-11-15T04:15:52;98979.13;;;6.68;100.00
13800;BME280;6971;50.028;9.258;2022-11-15T04:20:53;98984.19;;;6.52;100.00
13800;BME280;6971;50.028;9.258;2022-11-15T04:26:16;98985.16;;;6.49;100.00
13800;BME280;6971;50.028;9.258;2022-11-15T04:31:18;98986.81;;;6.52;100.00
13800;BME280;6971;50.028;9.258;2022-11-15T04:36:20;98980.50;;;6.37;100.00
13800;BME280;6971;50.028;9.258;2022-11-15T04:41:55;98985.66;;;6.38;100.00
13800;BME280;6971;50.028;9.258;2022-11-15T04:46:56;98978.53;;;6.42;100.00
13800;BME280;6971;50.028;9.258;2022-11-15T04:51:56;98980.34;;;6.40;100.00
13800;BME280;6971;50.028;9.258;2022-11-15T04:56:57;98963.00;;;6.37;100.00
13800;BME280;6971;50.028;9.258;2022-11-15T05:01:58;98959.13;;;6.27;100.00
13800;BME280;6971;50.028;9.258;2022-11-15T05:06:59;98960.97;;;6.44;100.00
13800;BME280;6971;50.028;9.258;2022-11-15T05:12:00;98957.06;;;6.34;100.00
13800;BME280;6971;50.028;9.258;2022-11-15T05:17:00;98966.63;;;6.35;100.00
13800;BME280;6971;50.028;9.258;2022-11-15T05:22:01;98957.13;;;6.32;100.00
13800;BME280;6971;50.028;9.258;2022-11-15T05:27:02;98955.97;;;6.39;100.00
13800;BME280;6971;50.028;9.258;2022-11-15T05:32:06;98959.41;;;6.40;100.00
13800;BME280;6971;50.028;9.258;2022-11-15T05:37:13;98965.56;;;6.39;100.00
13800;BME280;6971;50.028;9.258;2022-11-15T05:42:14;98969.03;;;6.39;100.00
13800;BME280;6971;50.028;9.258;2022-11-15T05:47:20;98970.41;;;6.27;100.00
13800;BME280;6971;50.028;9.258;2022-11-15T05:52:25;98969.00;;;6.20;100.00
13800;BME280;6971;50.028;9.258;2022-11-15T05:57:28;98959.63;;;6.14;100.00
13800;BME280;6971;50.028;9.258;2022-11-15T06:02:29;98957.78;;;6.17;100.00
13800;BME280;6971;50.028;9.258;2022-11-15T06:07:46;98951.16;;;6.09;100.00
13800;BME280;6971;50.028;9.258;2022-11-15T06:12:56;98947.97;;;6.01;100.00
13800;BME280;6971;50.028;9.258;2022-11-15T06:17:57;98948.31;;;5.93;100.00
13800;BME280;6971;50.028;9.258;2022-11-15T06:23:00;98946.69;;;5.91;100.00
13800;BME280;6971;50.028;9.258;2022-11-15T06:28:01;98933.19;;;5.79;100.00
13800;BME280;6971;50.028;9.258;2022-11-15T06:33:04;98934.50;;;5.69;100.00
13800;BME280;6971;50.028;9.258;2022-11-15T06:38:09;98957.50;;;5.60;100.00
13800;BME280;6971;50.028;9.258;2022-11-15T06:43:10;98963.13;;;5.72;100.00
13800;BME280;6971;50.028;9.258;2022-11-15T06:48:11;98961.78;;;5.84;100.00
13800;BME280;6971;50.028;9.258;2022-11-15T06:53:11;98979.09;;;5.86;100.00
13800;BME280;6971;50.028;9.258;2022-11-15T06:58:12;98986.34;;;5.80;100.00
13800;BME280;6971;50.028;9.258;2022-11-15T07:03:13;98977.97;;;5.71;100.00
13800;BME280;6971;50.028;9.258;2022-11-15T07:08:14;98984.94;;;5.71;100.00
13800;BME280;6971;50.028;9.258;2022-11-15T07:13:14;98986.00;;;5.67;100.00
13800;BME280;6971;50.028;9.258;2022-11-15T07:18:15;98986.84;;;5.67;100.00
13800;BME280;6971;50.028;9.258;2022-11-15T07:23:16;98974.88;;;5.61;100.00
13800;BME280;6971;50.028;9.258;2022-11-15T07:28:17;98967.75;;;5.65;100.00
13800;BME280;6971;50.028;9.258;2022-11-15T07:33:18;98978.09;;;5.68;100.00
13800;BME280;6971;50.028;9.258;2022-11-15T07:38:19;98967.38;;;5.74;100.00
13800;BME280;6971;50.028;9.258;2022-11-15T07:43:20;98957.59;;;5.80;100.00
13800;BME280;6971;50.028;9.258;2022-11-15T07:48:20;98973.00;;;5.86;100.00
13800;BME280;6971;50.028;9.258;2022-11-15T07:53:22;98960.47;;;5.94;100.00
13800;BME280;6971;50.028;9.258;2022-11-15T07:58:23;98964.34;;;6.06;100.00
13800;BME280;6971;50.028;9.258;2022-11-15T08:03:24;98956.91;;;6.18;100.00
13800;BME280;6971;50.028;9.258;2022-11-15T08:08:25;98949.16;;;6.35;100.00
13800;BME280;6971;50.028;9.258;2022-11-15T08:13:29;98962.06;;;6.59;100.00
13800;BME280;6971;50.028;9.258;2022-11-15T08:18:29;98953.84;;;6.86;100.00
13800;BME280;6971;50.028;9.258;2022-11-15T08:23:38;98954.47;;;7.11;100.00
13800;BME280;6971;50.028;9.258;2022-11-15T08:28:38;98945.59;;;7.32;100.00
13800;BME280;6971;50.028;9.258;2022-11-15T08:33:40;98953.09;;;7.58;100.00
13800;BME280;6971;50.028;9.258;2022-11-15T08:38:41;98951.88;;;8.01;100.00
13800;BME280;6971;50.028;9.258;2022-11-15T08:43:42;98951.47;;;8.60;100.00
13800;BME280;6971;50.028;9.258;2022-11-15T08:48:43;98944.25;;;9.13;100.00
13800;BME280;6971;50.028;9.258;2022-11-15T08:53:44;98946.22;;;9.57;100.00
13800;BME280;6971;50.028;9.258;2022-11-15T08:58:45;98938.19;;;10.34;100.00
13800;BME280;6971;50.028;9.258;2022-11-15T09:03:48;98933.44;;;10.97;100.00
13800;BME280;6971;50.028;9.258;2022-11-15T09:08:48;98934.59;;;12.02;93.89
13800;BME280;6971;50.028;9.258;2022-11-15T09:13:49;98938.38;;;12.76;83.43
13800;BME280;6971;50.028;9.258;2022-11-15T09:18:50;98937.56;;;13.00;87.49
13800;BME280;6971;50.028;9.258;2022-11-15T09:23:52;98932.44;;;13.72;78.69
13800;BME280;6971;50.028;9.258;2022-11-15T09:28:53;98934.81;;;12.64;75.64
13800;BME280;6971;50.028;9.258;2022-11-15T09:33:55;98928.38;;;12.68;77.76
13800;BME280;6971;50.028;9.258;2022-11-15T09:38:57;98926.34;;;12.85;76.23
13800;BME280;6971;50.028;9.258;2022-11-15T09:44:34;98920.41;;;12.81;74.34
13800;BME280;6971;50.028;9.258;2022-11-15T09:49:38;98909.59;;;12.47;81.06
13800;BME280;6971;50.028;9.258;2022-11-15T09:54:44;98911.59;;;12.56;81.20
13800;BME280;6971;50.028;9.258;2022-11-15T10:05:19;98894.03;;;12.42;86.82
13800;BME280;6971;50.028;9.258;2022-11-15T10:10:40;98883.28;;;12.19;89.07
13800;BME280;6971;50.028;9.258;2022-11-15T10:15:43;98883.69;;;12.39;86.39
13800;BME280;6971;50.028;9.258;2022-11-15T10:20:51;98881.88;;;12.52;83.00
13800;BME280;6971;50.028;9.258;2022-11-15T10:25:57;98869.94;;;12.47;85.21
13800;BME280;6971;50.028;9.258;2022-11-15T10:31:00;98880.72;;;12.44;85.55
13800;BME280;6971;50.028;9.258;2022-11-15T10:41:11;98871.56;;;12.74;79.50
13800;BME280;6971;50.028;9.258;2022-11-15T10:46:26;98862.22;;;12.81;77.35
13800;BME280;6971;50.028;9.258;2022-11-15T10:51:28;98864.97;;;13.04;77.05
13800;BME280;6971;50.028;9.258;2022-11-15T10:56:30;98854.63;;;13.25;78.07
13800;BME280;6971;50.028;9.258;2022-11-15T11:01:45;98838.50;;;13.17;78.26
13800;BME280;6971;50.028;9.258;2022-11-15T11:06:56;98841.56;;;13.11;78.05
13800;BME280;6971;50.028;9.258;2022-11-15T11:11:58;98840.97;;;13.07;78.80
13800;BME280;6971;50.028;9.258;2022-11-15T11:17:17;98836.34;;;12.98;78.66
13800;BME280;6971;50.028;9.258;2022-11-15T11:33:24;98834.66;;;12.72;83.69
13800;BME280;6971;50.028;9.258;2022-11-15T11:44:03;98811.94;;;12.70;89.60
13800;BME280;6971;50.028;9.258;2022-11-15T11:49:16;98806.56;;;12.71;90.97
13800;BME280;6971;50.028;9.258;2022-11-15T11:54:23;98810.09;;;12.83;91.37
13800;BME280;6971;50.028;9.258;2022-11-15T11:59:43;98797.53;;;12.74;89.01
13800;BME280;6971;50.028;9.258;2022-11-15T12:05:30;98779.06;;;12.85;87.54
13800;BME280;6971;50.028;9.258;2022-11-15T12:10:34;98774.28;;;12.90;85.82
13800;BME280;6971;50.028;9.258;2022-11-15T12:15:43;98750.66;;;13.00;86.21
13800;BME280;6971;50.028;9.258;2022-11-15T12:20:57;98743.28;;;12.92;86.95
13800;BME280;6971;50.028;9.258;2022-11-15T12:26:10;98735.16;;;13.07;86.52
13800;BME280;6971;50.028;9.258;2022-11-15T13:02:24;98693.25;;;14.05;79.29
13800;BME280;6971;50.028;9.258;2022-11-15T13:13:10;98680.16;;;13.81;81.43
13800;BME280;6971;50.028;9.258;2022-11-15T13:23:24;98676.91;;;13.54;83.79
13800;BME280;6971;50.028;9.258;2022-11-15T13:28:33;98672.19;;;13.47;83.11
13800;BME280;6971;50.028;9.258;2022-11-15T13:33:38;98670.50;;;13.45;82.57
13800;BME280;6971;50.028;9.258;2022-11-15T13:38:43;98676.28;;;13.39;83.18
13800;BME280;6971;50.028;9.258;2022-11-15T13:43:43;98664.97;;;13.26;83.26
13800;BME280;6971;50.028;9.258;2022-11-15T13:48:46;98660.13;;;13.08;84.14
13800;BME280;6971;50.028;9.258;2022-11-15T13:53:51;98645.69;;;13.01;84.01
13800;BME280;6971;50.028;9.258;2022-11-15T13:58:54;98652.53;;;12.81;86.70
13800;BME280;6971;50.028;9.258;2022-11-15T14:04:00;98635.53;;;12.72;88.24
13800;BME280;6971;50.028;9.258;2022-11-15T14:19:32;98613.94;;;12.42;86.87
13800;BME280;6971;50.028;9.258;2022-11-15T14:24:33;98612.31;;;12.28;86.89
13800;BME280;6971;50.028;9.258;2022-11-15T14:29:34;98606.75;;;12.20;88.32
13800;BME280;6971;50.028;9.258;2022-11-15T14:34:35;98593.16;;;12.13;89.06
13800;BME280;6971;50.028;9.258;2022-11-15T14:39:36;98590.13;;;12.06;88.42
13800;BME280;6971;50.028;9.258;2022-11-15T14:44:36;98581.66;;;11.90;90.26
13800;BME280;6971;50.028;9.258;2022-11-15T14:49:37;98572.25;;;11.85;91.74
13800;BME280;6971;50.028;9.258;2022-11-15T14:54:38;98577.03;;;11.80;90.61
13800;BME280;6971;50.028;9.258;2022-11-15T14:59:38;98579.91;;;11.77;95.03
13800;BME280;6971;50.028;9.258;2022-11-15T15:04:39;98565.44;;;11.70;92.33
13800;BME280;6971;50.028;9.258;2022-11-15T15:09:46;98561.09;;;11.44;98.31
13800;BME280;6971;50.028;9.258;2022-11-15T15:14:48;98549.69;;;11.44;100.00
13800;BME280;6971;50.028;9.258;2022-11-15T15:19:49;98549.09;;;11.40;100.00
13800;BME280;6971;50.028;9.258;2022-11-15T15:24:50;98537.31;;;11.20;100.00
13800;BME280;6971;50.028;9.258;2022-11-15T15:29:51;98537.00;;;11.12;100.00
13800;BME280;6971;50.028;9.258;2022-11-15T15:34:52;98529.66;;;11.04;100.00
13800;BME280;6971;50.028;9.258;2022-11-15T15:39:54;98524.50;;;10.76;100.00
13800;BME280;6971;50.028;9.258;2022-11-15T15:44:55;98520.72;;;10.67;100.00
13800;BME280;6971;50.028;9.258;2022-11-15T15:49:56;98505.34;;;10.48;100.00
13800;BME280;6971;50.028;9.258;2022-11-15T15:54:57;98500.25;;;10.32;100.00
13800;BME280;6971;50.028;9.258;2022-11-15T15:59:59;98494.84;;;10.21;100.00
13800;BME280;6971;50.028;9.258;2022-11-15T16:05:00;98496.63;;;10.07;100.00
13800;BME280;6971;50.028;9.258;2022-11-15T16:10:15;98485.84;;;9.97;100.00
13800;BME280;6971;50.028;9.258;2022-11-15T16:15:18;98482.69;;;9.92;100.00
13800;BME280;6971;50.028;9.258;2022-11-15T16:20:31;98482.69;;;9.92;100.00
13800;BME280;6971;50.028;9.258;2022-11-15T16:25:36;98481.19;;;9.75;100.00
13800;BME280;6971;50.028;9.258;2022-11-15T16:30:37;98477.81;;;9.73;100.00
13800;BME280;6971;50.028;9.258;2022-11-15T16:35:38;98467.00;;;9.77;100.00
13800;BME280;6971;50.028;9.258;2022-11-15T16:40:39;98460.16;;;9.88;100.00
13800;BME280;6971;50.028;9.258;2022-11-15T16:45:56;98463.31;;;9.93;100.00
13800;BME280;6971;50.028;9.258;2022-11-15T16:50:57;98456.56;;;9.89;100.00
13800;BME280;6971;50.028;9.258;2022-11-15T16:55:58;98450.91;;;9.95;100.00
13800;BME280;6971;50.028;9.258;2022-11-15T17:00:59;98437.34;;;10.01;100.00
13800;BME280;6971;50.028;9.258;2022-11-15T17:06:00;98435.78;;;10.12;100.00
13800;BME280;6971;50.028;9.258;2022-11-15T17:11:04;98426.94;;;10.13;100.00
13800;BME280;6971;50.028;9.258;2022-11-15T17:16:11;98418.94;;;10.14;100.00
13800;BME280;6971;50.028;9.258;2022-11-15T17:21:17;98424.69;;;10.06;100.00
13800;BME280;6971;50.028;9.258;2022-11-15T17:26:19;98415.66;;;9.98;100.00
13800;BME280;6971;50.028;9.258;2022-11-15T17:31:21;98407.94;;;9.82;100.00
13800;BME280;6971;50.028;9.258;2022-11-15T17:36:23;98399.22;;;9.94;100.00
13800;BME280;6971;50.028;9.258;2022-11-15T17:41:24;98389.72;;;9.78;100.00
13800;BME280;6971;50.028;9.258;2022-11-15T17:46:25;98376.56;;;9.65;100.00
13800;BME280;6971;50.028;9.258;2022-11-15T17:51:26;98384.75;;;9.61;100.00
13800;BME280;6971;50.028;9.258;2022-11-15T17:56:28;98377.72;;;9.61;100.00
13800;BME280;6971;50.028;9.258;2022-11-15T18:01:40;98382.97;;;9.61;100.00
13800;BME280;6971;50.028;9.258;2022-11-15T18:06:41;98379.69;;;9.58;100.00
13800;BME280;6971;50.028;9.258;2022-11-15T18:11:42;98370.31;;;9.53;100.00
13800;BME280;6971;50.028;9.258;2022-11-15T18:16:45;98361.16;;;9.46;100.00
13800;BME280;6971;50.028;9.258;2022-11-15T18:21:46;98364.94;;;9.42;100.00
13800;BME280;6971;50.028;9.258;2022-11-15T18:26:57;98359.78;;;9.40;100.00
13800;BME280;6971;50.028;9.258;2022-11-15T18:31:58;98360.41;;;9.44;100.00
13800;BME280;6971;50.028;9.258;2022-11-15T18:37:00;98352.94;;;9.38;100.00
13800;BME280;6971;50.028;9.258;2022-11-15T18:42:03;98351.59;;;9.45;100.00
13800;BME280;6971;50.028;9.258;2022-11-15T18:47:04;98349.16;;;9.42;100.00
13800;BME280;6971;50.028;9.258;2022-11-15T18:52:05;98353.19;;;9.48;100.00
13800;BME280;6971;50.028;9.258;2022-11-15T18:57:06;98344.16;;;9.52;100.00
13800;BME280;6971;50.028;9.258;2022-11-15T19:02:10;98348.25;;;9.69;100.00
13800;BME280;6971;50.028;9.258;2022-11-15T19:07:11;98337.94;;;9.66;100.00
13800;BME280;6971;50.028;9.258;2022-11-15T19:12:12;98329.31;;;9.64;100.00
13800;BME280;6971;50.028;9.258;2022-11-15T19:17:13;98315.63;;;9.59;100.00
13800;BME280;6971;50.028;9.258;2022-11-15T19:22:14;98312.34;;;9.55;100.00
13800;BME280;6971;50.028;9.258;2022-11-15T19:27:15;98305.94;;;9.59;100.00
13800;BME280;6971;50.028;9.258;2022-11-15T19:32:16;98305.41;;;9.67;100.00
13800;BME280;6971;50.028;9.258;2022-11-15T19:37:17;98303.09;;;9.62;100.00
13800;BME280;6971;50.028;9.258;2022-11-15T19:42:18;98301.34;;;9.63;100.00
13800;BME280;6971;50.028;9.258;2022-11-15T19:47:19;98296.78;;;9.65;100.00
13800;BME280;6971;50.028;9.258;2022-11-15T19:52:20;98305.53;;;9.65;100.00
13800;BME280;6971;50.028;9.258;2022-11-15T19:57:22;98305.63;;;9.64;100.00
13800;BME280;6971;50.028;9.258;2022-11-15T20:02:23;98297.66;;;9.65;100.00
13800;BME280;6971;50.028;9.258;2022-11-15T20:07:24;98288.59;;;9.70;100.00
13800;BME280;6971;50.028;9.258;2022-11-15T20:12:24;98284.91;;;9.72;100.00
13800;BME280;6971;50.028;9.258;2022-11-15T20:17:25;98285.66;;;9.61;100.00
13800;BME280;6971;50.028;9.258;2022-11-15T20:22:26;98284.69;;;9.62;100.00
13800;BME280;6971;50.028;9.258;2022-11-15T20:27:35;98279.75;;;9.71;100.00
13800;BME280;6971;50.028;9.258;2022-11-15T20:32:36;98274.78;;;9.66;100.00
13800;BME280;6971;50.028;9.258;2022-11-15T20:37:37;98265.44;;;9.75;100.00
13800;BME280;6971;50.028;9.258;2022-11-15T20:42:38;98257.75;;;9.72;100.00
13800;BME280;6971;50.028;9.258;2022-11-15T20:47:39;98267.00;;;9.77;100.00
13800;BME280;6971;50.028;9.258;2022-11-15T20:52:40;98271.31;;;9.78;100.00
13800;BME280;6971;50.028;9.258;2022-11-15T20:57:41;98267.72;;;9.79;100.00
13800;BME280;6971;50.028;9.258;2022-11-15T21:02:42;98250.56;;;9.74;100.00
13800;BME280;6971;50.028;9.258;2022-11-15T21:07:43;98233.53;;;9.79;100.00
13800;BME280;6971;50.028;9.258;2022-11-15T21:12:44;98237.97;;;9.79;100.00
13800;BME280;6971;50.028;9.258;2022-11-15T21:17:46;98237.88;;;9.81;100.00
13800;BME280;6971;50.028;9.258;2022-11-15T21:22:46;98226.25;;;9.96;100.00
13800;BME280;6971;50.028;9.258;2022-11-15T21:27:48;98227.91;;;9.97;100.00
13800;BME280;6971;50.028;9.258;2022-11-15T21:32:59;98217.63;;;9.94;100.00
13800;BME280;6971;50.028;9.258;2022-11-15T21:38:00;98215.81;;;9.95;100.00
13800;BME280;6971;50.028;9.258;2022-11-15T21:43:00;98222.25;;;9.90;100.00
13800;BME280;6971;50.028;9.258;2022-11-15T21:48:02;98219.22;;;9.84;100.00
13800;BME280;6971;50.028;9.258;2022-11-15T21:53:03;98205.97;;;9.72;100.00
13800;BME280;6971;50.028;9.258;2022-11-15T21:58:05;98209.03;;;9.40;100.00
13800;BME280;6971;50.028;9.258;2022-11-15T22:03:05;98196.22;;;9.22;100.00
13800;BME280;6971;50.028;9.258;2022-11-15T22:08:06;98193.16;;;9.16;100.00
13800;BME280;6971;50.028;9.258;2022-11-15T22:13:07;98191.38;;;9.16;100.00
13800;BME280;6971;50.028;9.258;2022-11-15T22:18:09;98186.44;;;9.11;100.00
13800;BME280;6971;50.028;9.258;2022-11-15T22:23:10;98179.25;;;9.00;100.00
13800;BME280;6971;50.028;9.258;2022-11-15T22:28:11;98170.75;;;8.97;100.00
13800;BME280;6971;50.028;9.258;2022-11-15T22:33:13;98163.94;;;8.94;100.00
13800;BME280;6971;50.028;9.258;2022-11-15T22:38:14;98159.91;;;8.88;100.00
13800;BME280;6971;50.028;9.258;2022-11-15T22:43:17;98159.41;;;8.83;100.00
13800;BME280;6971;50.028;9.258;2022-11-15T22:48:29;98149.09;;;8.80;100.00
13800;BME280;6971;50.028;9.258;2022-11-15T22:53:31;98151.69;;;8.67;100.00
13800;BME280;6971;50.028;9.258;2022-11-15T22:58:34;98142.78;;;8.70;100.00
13800;BME280;6971;50.028;9.258;2022-11-15T23:03:35;98148.03;;;8.70;100.00
13800;BME280;6971;50.028;9.258;2022-11-15T23:08:36;98139.09;;;8.59;100.00
13800;BME280;6971;50.028;9.258;2022-11-15T23:13:37;98142.84;;;8.55;100.00
13800;BME280;6971;50.028;9.258;2022-11-15T23:18:39;98141.06;;;8.56;100.00
13800;BME280;6971;50.028;9.258;2022-11-15T23:23:42;98142.09;;;8.53;100.00
13800;BME280;6971;50.028;9.258;2022-11-15T23:28:43;98135.13;;;8.39;100.00
13800;BME280;6971;50.028;9.258;2022-11-15T23:33:45;98132.38;;;8.41;100.00
13800;BME280;6971;50.028;9.258;2022-11-15T23:38:58;98136.47;;;8.32;100.00
13800;BME280;6971;50.028;9.258;2022-11-15T23:44:07;98129.81;;;8.26;100.00
13800;BME280;6971;50.028;9.258;2022-11-15T23:49:09;98130.88;;;8.23;100.00
13800;BME280;6971;50.028;9.258;2022-11-15T23:54:10;98136.00;;;8.12;100.00
13800;BME280;6971;50.028;9.258;2022-11-15T23:59:11;98133.59;;;8.22;100.00
